Time;durP1;ratioP1;P1;durP2;ratioP2;P2;SDS_P1;SDS_P2;PMS_P1;PMS_P2;Temp;Humidity;BMP_temperature;BMP_pressure;BME280_temperature;BME280_humidity;BME280_pressure;Samples;Min_cycle;Max_cycle;Signal;HPM_P1;HPM_P2
2022/08/22 00:02:10;;;;;;;3.13;2.83;;;17.50;99.90;18.90;96339.00;;;;5090700;28;20216;-70
2022/08/22 00:05:10;;;;;;;2.63;2.40;;;17.50;99.90;18.90;96335.00;;;;5091137;28;20697;-71
2022/08/22 00:08:09;;;;;;;3.87;2.50;;;17.50;99.90;18.70;96329.00;;;;5103830;28;20194;-71
2022/08/22 00:11:08;;;;;;;2.70;2.50;;;17.40;99.90;18.50;96333.00;;;;5110812;28;20218;-70
2022/08/22 00:14:07;;;;;;;3.73;2.37;;;17.40;99.90;18.30;96328.00;;;;5093162;28;20225;-70
2022/08/22 00:17:06;;;;;;;2.40;2.20;;;17.30;99.90;18.30;96327.00;;;;5091012;28;20213;-72
2022/08/22 00:20:04;;;;;;;2.40;2.13;;;17.20;99.90;18.50;96327.00;;;;5093801;27;20224;-70
2022/08/22 00:23:02;;;;;;;3.03;2.70;;;17.20;99.90;18.60;96331.00;;;;5100840;28;20599;-72
2022/08/22 00:26:01;;;;;;;3.17;2.13;;;17.20;99.90;18.80;96329.00;;;;5110733;28;20198;-72
2022/08/22 00:28:58;;;;;;;2.57;2.37;;;17.20;99.90;18.70;96327.00;;;;5101108;28;20199;-72
2022/08/22 00:31:52;;;;;;;2.90;2.60;;;17.20;99.90;18.40;96312.00;;;;5094374;28;20218;-70
2022/08/22 00:34:51;;;;;;;3.53;2.50;;;17.20;99.90;18.50;96320.00;;;;5103058;28;20211;-70
2022/08/22 00:37:46;;;;;;;3.13;2.83;;;17.20;99.90;18.30;96315.00;;;;5093881;28;20199;-70
2022/08/22 00:40:56;;;;;;;2.57;2.37;;;17.10;99.90;18.50;96322.00;;;;5091463;28;20215;-72
2022/08/22 00:44:20;;;;;;;3.40;2.17;;;17.10;99.90;18.50;96314.00;;;;5098720;28;20199;-71
2022/08/22 00:47:45;;;;;;;4.43;2.93;;;17.10;99.90;18.40;96310.00;;;;5090383;28;20207;-72
2022/08/22 00:51:22;;;;;;;2.97;2.77;;;17.10;99.90;18.50;96313.00;;;;5098007;28;20579;-72
2022/08/22 00:54:23;;;;;;;2.90;2.60;;;17.00;99.90;18.50;96308.00;;;;5098513;28;20226;-70
2022/08/22 00:57:57;;;;;;;4.50;2.83;;;17.00;99.90;18.50;96303.00;;;;5090877;28;20200;-71
2022/08/22 01:00:54;;;;;;;3.37;2.47;;;17.00;99.90;18.50;96305.00;;;;5074357;28;20227;-70
2022/08/22 01:04:33;;;;;;;3.40;3.10;;;17.00;99.90;18.60;96304.00;;;;5103253;28;20571;-71
2022/08/22 01:07:47;;;;;;;3.93;2.67;;;17.10;99.90;18.40;96291.00;;;;5090091;28;20658;-70
2022/08/22 01:11:02;;;;;;;3.87;2.80;;;17.10;99.90;18.50;96287.00;;;;5089773;28;20226;-72
2022/08/22 01:14:12;;;;;;;2.70;2.50;;;17.00;99.90;18.50;96292.00;;;;5090600;28;20219;-71
2022/08/22 01:17:47;;;;;;;2.70;2.50;;;17.00;99.90;18.60;96284.00;;;;5098880;28;20195;-71
2022/08/22 01:21:30;;;;;;;3.57;3.10;;;17.00;99.90;18.60;96284.00;;;;5097668;22;20222;-86
2022/08/22 01:25:18;;;;;;;2.80;2.60;;;17.10;99.90;18.70;96282.00;;;;5086087;28;20198;-88
2022/08/22 01:29:13;;;;;;;2.90;2.70;;;17.10;99.90;18.50;96278.00;;;;5116915;28;20228;-86
2022/08/22 01:33:32;;;;;;;4.17;2.40;;;17.10;99.90;18.70;96272.00;;;;5109205;28;20227;-87
2022/08/22 01:36:49;;;;;;;3.03;2.83;;;17.10;99.90;18.80;96266.00;;;;5087228;22;20239;-72
2022/08/22 01:40:13;;;;;;;2.20;2.00;;;17.20;99.90;18.90;96265.00;;;;5097119;28;20187;-71
2022/08/22 01:43:09;;;;;;;4.27;2.60;;;17.20;99.90;18.90;96263.00;;;;5080402;28;20192;-73
2022/08/22 01:46:25;;;;;;;2.80;2.60;;;17.20;99.90;18.90;96268.00;;;;5084113;28;20202;-71
2022/08/22 01:49:21;;;;;;;2.73;2.20;;;17.30;99.90;18.90;96268.00;;;;5070768;28;20663;-71
2022/08/22 01:52:16;;;;;;;5.10;3.00;;;17.30;99.90;18.90;96272.00;;;;5080075;28;20220;-75
2022/08/22 01:55:12;;;;;;;2.47;2.27;;;17.30;99.90;18.90;96262.00;;;;5075671;28;20195;-73
2022/08/22 01:58:04;;;;;;;4.30;2.90;;;17.30;99.90;18.90;96261.00;;;;5071554;28;20198;-71
2022/08/22 02:01:19;;;;;;;4.40;2.83;;;17.30;99.90;18.90;96268.00;;;;5070939;28;20239;-72
2022/08/22 02:04:17;;;;;;;2.53;2.33;;;17.30;99.90;18.80;96254.00;;;;5072573;28;20689;-71
2022/08/22 02:07:14;;;;;;;3.20;2.83;;;17.30;99.90;18.70;96272.00;;;;5069365;28;20202;-72
2022/08/22 02:10:15;;;;;;;3.60;2.63;;;17.30;99.90;18.80;96260.00;;;;5070170;28;20199;-71
2022/08/22 02:13:18;;;;;;;6.23;2.90;;;17.30;99.90;18.70;96266.00;;;;5071385;28;20215;-71
2022/08/22 02:16:16;;;;;;;4.77;3.07;;;17.30;99.90;18.80;96259.00;;;;5074491;28;20195;-72
2022/08/22 02:19:28;;;;;;;2.53;2.33;;;17.30;99.90;19.00;96266.00;;;;5082610;28;20199;-72
2022/08/22 02:22:38;;;;;;;2.90;2.70;;;17.30;99.90;18.80;96248.00;;;;5072622;28;20218;-72
2022/08/22 02:25:34;;;;;;;2.87;2.67;;;17.30;99.90;18.90;96259.00;;;;5074948;28;20199;-73
2022/08/22 02:28:53;;;;;;;3.23;2.67;;;17.30;99.90;18.80;96255.00;;;;5074484;28;20198;-72
2022/08/22 02:31:49;;;;;;;2.40;2.20;;;17.30;99.90;18.90;96253.00;;;;5069090;28;20593;-72
2022/08/22 02:34:44;;;;;;;2.43;2.07;;;17.30;99.90;18.70;96261.00;;;;5078000;28;20231;-71
2022/08/22 02:37:43;;;;;;;3.13;2.50;;;17.40;99.90;18.80;96246.00;;;;5079983;28;20226;-71
2022/08/22 02:40:39;;;;;;;2.80;2.60;;;17.30;99.90;19.00;96257.00;;;;5085111;28;20230;-72
2022/08/22 02:43:39;;;;;;;2.87;2.67;;;17.30;99.90;19.20;96258.00;;;;5082710;28;20203;-72
2022/08/22 02:46:40;;;;;;;3.23;2.57;;;17.40;99.90;19.40;96253.00;;;;5085292;28;20817;-72
2022/08/22 02:49:34;;;;;;;3.43;2.73;;;17.50;99.90;19.50;96256.00;;;;5085014;28;20195;-71
2022/08/22 02:52:29;;;;;;;3.47;2.50;;;17.60;99.90;19.50;96265.00;;;;5082670;28;20191;-71
2022/08/22 02:55:43;;;;;;;4.33;2.50;;;17.70;99.90;19.60;96262.00;;;;5072825;28;20230;-72
2022/08/22 02:58:49;;;;;;;3.47;2.53;;;17.80;99.90;19.60;96257.00;;;;5070503;28;20200;-72
2022/08/22 03:01:42;;;;;;;7.77;3.13;;;17.90;99.90;19.60;96257.00;;;;5074320;28;20214;-71
2022/08/22 03:04:51;;;;;;;2.87;2.60;;;17.90;99.90;19.70;96263.00;;;;5076555;28;20198;-73
2022/08/22 03:07:49;;;;;;;4.53;2.30;;;17.90;99.90;19.60;96263.00;;;;5074535;28;20203;-72
2022/08/22 03:10:46;;;;;;;4.73;2.90;;;17.90;99.90;19.70;96259.00;;;;5073885;28;20234;-72
2022/08/22 03:13:49;;;;;;;2.37;2.17;;;18.00;99.90;19.70;96260.00;;;;5068714;28;20216;-72
2022/08/22 03:16:49;;;;;;;2.40;2.30;;;18.00;99.90;19.70;96258.00;;;;5074169;28;20199;-71
2022/08/22 03:19:57;;;;;;;2.97;2.33;;;18.00;99.90;19.70;96259.00;;;;5069453;28;20199;-71
2022/08/22 03:22:59;;;;;;;3.30;3.00;;;18.00;99.90;19.70;96255.00;;;;5070238;28;20200;-71
2022/08/22 03:25:58;;;;;;;3.07;1.93;;;18.00;99.90;19.60;96256.00;;;;5079698;28;20195;-72
2022/08/22 03:28:54;;;;;;;2.40;2.20;;;18.00;99.90;19.60;96257.00;;;;5083003;28;20195;-74
2022/08/22 03:32:08;;;;;;;5.23;3.13;;;18.00;99.90;19.60;96259.00;;;;5073121;28;20233;-72
2022/08/22 03:35:01;;;;;;;2.50;2.30;;;18.00;99.90;19.60;96257.00;;;;5075185;28;20246;-74
2022/08/22 03:37:55;;;;;;;4.10;3.40;;;18.00;99.90;19.60;96264.00;;;;5089337;28;20673;-72
2022/08/22 03:41:10;;;;;;;3.67;2.63;;;18.00;99.90;19.60;96261.00;;;;5089366;28;20704;-72
2022/08/22 03:44:33;;;;;;;2.93;2.73;;;18.00;99.90;19.70;96273.00;;;;5081374;28;20748;-72
2022/08/22 03:47:41;;;;;;;4.10;2.20;;;18.00;99.90;19.70;96278.00;;;;5051957;28;20777;-73
2022/08/22 03:51:01;;;;;;;2.97;2.73;;;18.10;99.90;19.70;96275.00;;;;5072714;28;20224;-72
2022/08/22 03:54:30;;;;;;;2.70;2.50;;;18.10;99.90;19.70;96274.00;;;;5083646;28;20225;-74
2022/08/22 03:58:04;;;;;;;3.67;2.60;;;18.10;99.90;19.60;96288.00;;;;5072210;28;20581;-72
2022/08/22 04:01:35;;;;;;;2.97;2.70;;;18.10;99.90;19.60;96274.00;;;;5073590;28;20238;-72
2022/08/22 04:05:08;;;;;;;3.07;2.37;;;18.00;99.90;19.50;96279.00;;;;5064244;28;20662;-73
2022/08/22 04:08:39;;;;;;;4.30;2.60;;;18.00;99.90;19.40;96280.00;;;;5072290;28;20582;-72
2022/08/22 04:12:07;;;;;;;3.50;2.83;;;17.90;99.90;19.30;96289.00;;;;5089737;28;20226;-72
2022/08/22 04:15:56;;;;;;;3.57;2.43;;;17.90;99.90;19.20;96296.00;;;;5071058;28;20215;-73
2022/08/22 04:19:07;;;;;;;4.23;2.90;;;17.80;99.90;19.20;96287.00;;;;5037453;28;20212;-72
2022/08/22 04:22:41;;;;;;;7.37;2.90;;;17.70;99.90;19.10;96287.00;;;;5069622;28;20212;-72
2022/08/22 04:25:35;;;;;;;3.87;3.03;;;17.70;99.90;19.00;96290.00;;;;5062607;28;20574;-72
2022/08/22 04:28:30;;;;;;;2.80;2.60;;;17.60;99.90;18.90;96298.00;;;;5074419;28;20694;-72
2022/08/22 04:31:26;;;;;;;4.27;2.87;;;17.60;99.90;18.90;96290.00;;;;5088852;28;20222;-72
2022/08/22 04:34:32;;;;;;;5.10;2.87;;;17.50;99.90;18.70;96295.00;;;;5086007;28;20221;-72
2022/08/22 04:37:30;;;;;;;3.47;2.67;;;17.50;99.90;18.40;96295.00;;;;5077921;28;20211;-72
2022/08/22 04:40:25;;;;;;;5.87;3.40;;;17.40;99.90;18.50;96301.00;;;;5090350;28;20694;-72
2022/08/22 04:43:23;;;;;;;3.83;2.70;;;17.30;99.90;18.30;96298.00;;;;5073243;28;20524;-72
2022/08/22 04:46:22;;;;;;;6.73;2.83;;;17.20;99.90;18.30;96301.00;;;;5069981;28;20196;-72
2022/08/22 04:49:17;;;;;;;3.10;2.63;;;17.10;99.90;18.30;96305.00;;;;5069976;28;20196;-72
2022/08/22 04:52:18;;;;;;;5.23;2.83;;;17.00;99.90;18.20;96296.00;;;;5069022;28;20228;-71
2022/08/22 04:55:21;;;;;;;3.30;3.00;;;16.90;99.90;18.00;96294.00;;;;5070160;28;20223;-71
2022/08/22 04:58:30;;;;;;;4.83;2.90;;;16.90;99.90;18.10;96297.00;;;;5073618;28;20203;-72
2022/08/22 05:01:24;;;;;;;3.30;3.00;;;16.80;99.90;18.10;96297.00;;;;5069607;28;20239;-73
2022/08/22 05:04:21;;;;;;;8.83;2.93;;;16.70;99.90;17.70;96292.00;;;;5068631;28;20199;-72
2022/08/22 05:07:16;;;;;;;9.23;5.63;;;16.70;99.90;17.70;96300.00;;;;5069509;28;20575;-72
2022/08/22 05:10:10;;;;;;;9.33;5.40;;;16.60;99.90;18.00;96300.00;;;;5089876;28;20207;-72
2022/08/22 05:13:04;;;;;;;75.43;33.13;;;16.70;99.90;17.70;96305.00;;;;5078951;28;20196;-72
2022/08/22 05:15:56;;;;;;;66.90;29.43;;;16.60;99.90;17.90;96311.00;;;;5068755;28;20235;-72
2022/08/22 05:18:50;;;;;;;33.50;17.63;;;16.60;99.90;17.50;96305.00;;;;5069408;28;20200;-72
2022/08/22 05:21:43;;;;;;;56.67;32.87;;;16.60;99.90;17.50;96305.00;;;;5068798;28;20229;-71
2022/08/22 05:24:37;;;;;;;32.93;19.60;;;16.50;99.90;17.60;96297.00;;;;5069429;28;20203;-71
2022/08/22 05:27:31;;;;;;;22.43;17.10;;;16.50;99.90;17.80;96303.00;;;;5073208;28;20202;-73
2022/08/22 05:30:24;;;;;;;15.53;11.17;;;16.50;99.90;18.00;96312.00;;;;5084386;28;20594;-72
2022/08/22 05:33:22;;;;;;;11.17;9.40;;;16.60;99.90;18.10;96303.00;;;;5087421;28;20219;-72
2022/08/22 05:36:16;;;;;;;11.10;7.83;;;16.60;99.90;18.10;96319.00;;;;5067734;28;20590;-72
2022/08/22 05:39:10;;;;;;;7.87;6.10;;;16.70;99.90;18.30;96304.00;;;;5078650;28;20195;-72
2022/08/22 05:42:03;;;;;;;6.10;5.33;;;16.80;99.90;18.30;96313.00;;;;5084936;28;20215;-72
2022/08/22 05:44:52;;;;;;;5.67;4.00;;;16.80;99.90;18.00;96304.00;;;;5068595;28;20192;-71
2022/08/22 05:47:46;;;;;;;8.07;3.90;;;16.90;99.90;18.60;96307.00;;;;5069418;28;20204;-72
2022/08/22 05:50:41;;;;;;;5.17;3.57;;;17.00;99.90;18.60;96306.00;;;;5068983;28;20218;-73
2022/08/22 05:53:38;;;;;;;3.10;2.87;;;17.10;99.90;18.50;96303.00;;;;5071025;28;20672;-71
2022/08/22 05:56:36;;;;;;;4.17;3.40;;;17.10;99.90;18.30;96313.00;;;;5068861;28;20227;-73
2022/08/22 05:59:31;;;;;;;3.53;3.23;;;17.10;99.90;18.20;96298.00;;;;5069678;28;20204;-71
2022/08/22 06:02:23;;;;;;;8.00;4.00;;;17.20;99.90;18.30;96294.00;;;;5074972;28;20203;-71
2022/08/22 06:05:12;;;;;;;4.47;4.07;;;17.10;99.90;18.50;96308.00;;;;5088375;28;20207;-71
2022/08/22 06:08:07;;;;;;;5.70;3.70;;;17.20;99.90;18.70;96313.00;;;;5079323;28;20212;-72
2022/08/22 06:11:04;;;;;;;3.50;3.20;;;17.20;99.90;18.70;96301.00;;;;5068561;28;20227;-72
2022/08/22 06:14:06;;;;;;;4.90;3.43;;;17.20;99.90;18.70;96306.00;;;;5068244;28;20203;-72
2022/08/22 06:17:04;;;;;;;3.93;3.53;;;17.30;99.90;18.70;96310.00;;;;5068101;28;20223;-71
2022/08/22 06:19:54;;;;;;;3.23;2.83;;;17.40;99.90;19.10;96304.00;;;;5079107;28;20738;-72
2022/08/22 06:22:51;;;;;;;4.07;2.10;;;17.40;99.90;19.20;96301.00;;;;5076190;28;20219;-72
2022/08/22 06:25:45;;;;;;;4.43;3.17;;;17.50;99.90;19.00;96301.00;;;;5068935;28;20218;-72
2022/08/22 06:28:40;;;;;;;4.97;2.37;;;17.60;99.90;19.50;96306.00;;;;5077152;28;20207;-72
2022/08/22 06:31:35;;;;;;;3.37;2.57;;;17.70;99.90;19.80;96309.00;;;;5074465;28;20234;-73
2022/08/22 06:34:30;;;;;;;2.10;1.90;;;17.80;99.90;19.80;96305.00;;;;5079648;28;20204;-72
2022/08/22 06:37:26;;;;;;;2.57;2.37;;;17.90;99.90;19.80;96314.00;;;;5077722;28;20667;-71
2022/08/22 06:40:17;;;;;;;2.87;1.90;;;18.00;99.90;19.90;96322.00;;;;5069166;28;20230;-72
2022/08/22 06:43:06;;;;;;;2.33;2.10;;;18.10;99.90;19.90;96319.00;;;;5069465;28;20694;-72
2022/08/22 06:45:57;;;;;;;3.53;1.97;;;18.20;99.90;20.00;96314.00;;;;5067384;28;20214;-71
2022/08/22 06:48:47;;;;;;;4.93;2.60;;;18.20;99.90;19.90;96317.00;;;;5088312;28;20221;-72
2022/08/22 06:51:38;;;;;;;2.90;2.40;;;18.30;99.90;19.40;96324.00;;;;5086398;28;20215;-71
2022/08/22 06:54:31;;;;;;;2.60;2.40;;;18.30;99.90;19.30;96316.00;;;;5069016;28;20198;-71
2022/08/22 06:57:33;;;;;;;3.03;2.33;;;18.20;99.90;19.10;96325.00;;;;5076581;28;20554;-71
2022/08/22 07:00:22;;;;;;;2.60;2.40;;;18.00;99.90;19.00;96317.00;;;;5071972;28;20223;-70
2022/08/22 07:03:20;;;;;;;2.70;2.50;;;17.90;99.90;19.30;96313.00;;;;5070545;28;20577;-71
2022/08/22 07:06:15;;;;;;;3.00;2.50;;;17.80;99.90;19.20;96303.00;;;;5072661;28;20204;-71
2022/08/22 07:09:05;;;;;;;4.27;2.33;;;17.80;99.90;19.30;96310.00;;;;5072796;28;20685;-71
2022/08/22 07:11:59;;;;;;;2.30;2.03;;;17.80;99.90;19.20;96314.00;;;;5073345;28;20223;-73
2022/08/22 07:14:52;;;;;;;4.67;2.20;;;17.80;99.90;19.50;96314.00;;;;5075605;28;20196;-72
2022/08/22 07:17:50;;;;;;;2.13;2.03;;;17.80;99.90;19.50;96330.00;;;;5081680;28;20203;-74
2022/08/22 07:20:44;;;;;;;2.77;2.27;;;17.90;99.90;19.70;96326.00;;;;5097397;22;21968;-70
2022/08/22 07:23:37;;;;;;;4.30;2.50;;;18.00;99.90;19.70;96329.00;;;;5076940;28;20196;-72
2022/08/22 07:26:32;;;;;;;4.80;2.37;;;18.00;99.90;19.70;96313.00;;;;5065913;28;20567;-70
2022/08/22 07:29:30;;;;;;;3.63;2.70;;;18.10;99.90;19.60;96318.00;;;;5056456;28;20199;-70
2022/08/22 07:32:27;;;;;;;3.37;2.33;;;18.10;99.90;19.50;96312.00;;;;5066991;28;20227;-71
2022/08/22 07:35:20;;;;;;;2.77;1.97;;;18.10;99.90;19.70;96325.00;;;;5070840;28;20197;-70
2022/08/22 07:38:22;;;;;;;4.40;2.37;;;18.10;99.90;19.70;96310.00;;;;5060840;28;20197;-70
2022/08/22 07:41:18;;;;;;;2.43;1.87;;;18.10;99.90;19.70;96309.00;;;;5050823;28;20247;-70
2022/08/22 07:44:16;;;;;;;3.47;1.70;;;18.10;99.90;19.60;96312.00;;;;5076349;28;20717;-74
2022/08/22 07:47:14;;;;;;;2.23;1.80;;;18.10;99.90;19.70;96317.00;;;;5074390;28;20206;-74
2022/08/22 07:50:07;;;;;;;7.10;2.00;;;18.20;99.90;19.80;96300.00;;;;5066332;28;20201;-70
2022/08/22 07:53:06;;;;;;;1.97;1.77;;;18.20;99.90;19.90;96318.00;;;;5051702;28;20274;-73
2022/08/22 07:55:59;;;;;;;2.70;1.70;;;18.20;99.90;20.00;96309.00;;;;5062969;28;20216;-70
2022/08/22 07:58:53;;;;;;;1.90;1.80;;;18.30;99.90;20.30;96305.00;;;;5051610;28;20201;-70
2022/08/22 08:01:46;;;;;;;1.83;1.73;;;18.40;99.90;20.20;96296.00;;;;5053060;28;20225;-73
2022/08/22 08:04:37;;;;;;;2.43;1.70;;;18.50;99.90;20.20;96291.00;;;;5061643;28;20671;-68
2022/08/22 08:07:31;;;;;;;2.10;1.70;;;18.60;99.90;20.60;96305.00;;;;5057501;28;20523;-71
2022/08/22 08:10:24;;;;;;;2.97;1.57;;;18.80;99.90;20.60;96286.00;;;;5071561;28;20203;-70
2022/08/22 08:13:25;;;;;;;1.67;1.57;;;19.00;99.90;20.70;96295.00;;;;5066959;28;20196;-71
2022/08/22 08:16:20;;;;;;;2.27;1.57;;;19.10;99.90;20.60;96287.00;;;;5068095;28;20234;-71
2022/08/22 08:19:12;;;;;;;2.00;1.80;;;19.20;99.90;20.80;96295.00;;;;5059092;28;20202;-72
2022/08/22 08:22:03;;;;;;;1.87;1.77;;;19.20;99.90;20.80;96301.00;;;;5088152;28;20713;-68
2022/08/22 08:24:56;;;;;;;3.07;1.77;;;19.30;99.90;21.10;96302.00;;;;5070636;28;20196;-70
2022/08/22 08:30:58;;;;;;;2.17;1.77;;;19.50;99.90;21.40;96288.00;;;;5062740;28;20216;-70
2022/08/22 08:33:51;;;;;;;3.07;1.83;;;19.70;99.90;21.60;96289.00;;;;5065520;28;20213;-70
2022/08/22 08:36:50;;;;;;;2.53;1.50;;;19.80;99.90;21.80;96284.00;;;;5050196;28;20227;-70
2022/08/22 08:39:47;;;;;;;3.40;1.90;;;19.90;99.90;21.60;96288.00;;;;5051097;28;20557;-73
2022/08/22 08:46:50;;;;;;;1.70;1.40;;;20.00;99.90;21.40;96292.00;;;;5069538;28;20200;-71
2022/08/22 08:50:17;;;;;;;1.93;1.33;;;20.10;99.90;21.20;96277.00;;;;5049793;28;20280;-71
2022/08/22 08:53:41;;;;;;;1.67;1.50;;;20.00;99.90;21.40;96299.00;;;;5062688;28;20207;-72
2022/08/22 08:56:41;;;;;;;2.07;1.83;;;20.00;99.90;21.50;96284.00;;;;5060169;28;20215;-71
2022/08/22 08:59:44;;;;;;;2.77;1.97;;;20.10;99.90;21.60;96294.00;;;;5060950;28;20196;-70
2022/08/22 09:02:56;;;;;;;1.80;1.70;;;20.10;99.90;21.40;96299.00;;;;5062490;28;20228;-70
2022/08/22 09:06:26;;;;;;;5.17;2.33;;;20.00;99.90;21.40;96296.00;;;;5066148;28;20196;-71
2022/08/22 09:09:37;;;;;;;2.47;2.10;;;20.00;99.90;21.30;96308.00;;;;5069564;28;20210;-71
2022/08/22 09:12:59;;;;;;;1.90;1.50;;;20.00;99.90;21.70;96300.00;;;;5067589;28;20599;-70
2022/08/22 09:16:18;;;;;;;3.10;2.00;;;20.00;99.90;21.30;96306.00;;;;5069725;28;20192;-72
2022/08/22 09:19:51;;;;;;;2.70;1.70;;;20.00;99.90;21.50;96288.00;;;;5058748;28;20191;-70
2022/08/22 09:23:36;;;;;;;3.13;1.60;;;20.10;99.90;21.90;96288.00;;;;5076527;28;20675;-70
2022/08/22 09:26:38;;;;;;;1.90;1.70;;;20.20;99.90;21.80;96286.00;;;;5063337;28;20207;-71
2022/08/22 09:29:39;;;;;;;3.37;1.60;;;20.20;99.90;22.10;96294.00;;;;5062434;28;20203;-70
2022/08/22 09:32:44;;;;;;;3.27;1.83;;;20.40;99.90;22.30;96278.00;;;;5056024;28;20211;-72
2022/08/22 09:35:47;;;;;;;2.20;1.80;;;20.50;99.90;22.30;96290.00;;;;5068927;28;20199;-71
2022/08/22 09:38:51;;;;;;;1.97;1.70;;;20.60;99.90;22.50;96296.00;;;;5065200;28;20196;-70
2022/08/22 09:41:50;;;;;;;2.47;1.40;;;20.60;99.90;22.50;96292.00;;;;5061672;28;20218;-70
2022/08/22 09:44:52;;;;;;;2.40;1.50;;;20.70;99.90;22.60;96289.00;;;;5067638;28;20203;-71
2022/08/22 09:47:50;;;;;;;1.57;1.20;;;20.80;99.90;22.80;96294.00;;;;5063865;28;20207;-72
2022/08/22 09:50:50;;;;;;;2.30;1.80;;;20.90;99.90;22.70;96300.00;;;;5064229;28;20216;-69
2022/08/22 09:53:54;;;;;;;2.17;1.47;;;21.00;99.90;22.60;96292.00;;;;5052256;28;20895;-72
2022/08/22 09:56:58;;;;;;;1.50;1.40;;;21.00;99.90;22.50;96290.00;;;;5064547;28;20223;-70
2022/08/22 10:00:21;;;;;;;3.57;2.10;;;21.00;98.90;22.50;96285.00;;;;5059019;28;20196;-71
2022/08/22 10:03:18;;;;;;;1.80;1.70;;;21.00;99.30;22.70;96283.00;;;;5051390;28;20196;-70
2022/08/22 10:06:16;;;;;;;1.90;1.70;;;21.10;99.90;22.80;96297.00;;;;5051854;28;20196;-73
2022/08/22 10:09:10;;;;;;;1.67;1.40;;;21.20;99.40;22.80;96295.00;;;;5059051;28;20226;-72
2022/08/22 10:12:03;;;;;;;2.83;1.70;;;21.30;98.30;22.80;96295.00;;;;5053431;28;20227;-69
2022/08/22 10:15:09;;;;;;;1.70;1.60;;;21.30;98.00;23.10;96287.00;;;;5066693;28;20679;-71
2022/08/22 10:18:14;;;;;;;5.40;3.77;;;21.40;97.00;23.30;96292.00;;;;5058881;28;20226;-70
2022/08/22 10:21:14;;;;;;;2.83;1.60;;;21.50;97.40;23.40;96285.00;;;;5066598;28;20227;-72
2022/08/22 10:24:18;;;;;;;2.87;1.60;;;21.60;97.70;23.50;96293.00;;;;5050777;28;20664;-70
2022/08/22 10:27:15;;;;;;;1.43;1.33;;;21.70;97.70;23.00;96285.00;;;;5067318;28;20199;-71
2022/08/22 10:30:10;;;;;;;1.70;1.37;;;21.70;97.60;23.10;96282.00;;;;5070655;28;20712;-71
2022/08/22 10:33:09;;;;;;;1.67;1.40;;;21.70;97.60;23.10;96285.00;;;;5071117;28;20196;-71
2022/08/22 10:36:06;;;;;;;2.13;1.93;;;21.60;96.70;23.20;96287.00;;;;5069455;28;20213;-69
2022/08/22 10:39:00;;;;;;;1.33;1.20;;;21.60;97.30;23.40;96284.00;;;;5068966;28;20230;-69
2022/08/22 10:42:21;;;;;;;1.17;1.07;;;21.70;97.70;23.50;96304.00;;;;5069666;28;20599;-72
2022/08/22 10:45:22;;;;;;;2.30;1.40;;;21.70;97.50;23.60;96291.00;;;;5063244;28;20699;-70
2022/08/22 10:48:33;;;;;;;1.70;1.60;;;21.70;97.00;23.50;96292.00;;;;5064072;28;20203;-69
2022/08/22 10:51:46;;;;;;;1.73;1.50;;;21.80;97.10;23.10;96290.00;;;;5065726;28;20208;-70
2022/08/22 10:54:47;;;;;;;1.50;1.40;;;21.70;95.50;23.20;96305.00;;;;5064890;28;20282;-71
2022/08/22 10:57:59;;;;;;;1.53;1.43;;;21.60;96.20;23.10;96296.00;;;;5063785;28;20216;-70
2022/08/22 11:00:53;;;;;;;1.60;1.50;;;21.60;96.00;23.10;96300.00;;;;5058157;28;20220;-70
2022/08/22 11:03:49;;;;;;;1.93;1.83;;;21.50;95.90;22.90;96310.00;;;;5071972;28;20207;-69
2022/08/22 11:06:45;;;;;;;2.23;1.47;;;21.50;95.70;22.60;96300.00;;;;5068967;28;20212;-68
2022/08/22 11:09:42;;;;;;;1.73;1.63;;;21.40;95.00;23.10;96308.00;;;;5060703;28;20189;-70
2022/08/22 11:12:37;;;;;;;1.90;1.40;;;21.40;95.30;23.20;96308.00;;;;5062201;28;20239;-70
2022/08/22 11:15:55;;;;;;;2.17;1.50;;;21.50;95.90;23.20;96306.00;;;;5060694;28;20200;-69
2022/08/22 11:19:12;;;;;;;2.03;1.57;;;21.50;96.40;23.20;96301.00;;;;5065870;28;20251;-71
2022/08/22 11:22:11;;;;;;;1.50;1.30;;;21.50;96.10;23.20;96312.00;;;;5059493;28;20223;-70
2022/08/22 11:25:28;;;;;;;1.70;1.60;;;21.60;95.60;23.40;96320.00;;;;5071306;28;20204;-70
2022/08/22 11:29:00;;;;;;;3.33;1.50;;;21.70;95.50;23.40;96322.00;;;;5065120;28;20200;-69
2022/08/22 11:31:58;;;;;;;1.50;1.40;;;21.70;95.40;23.20;96325.00;;;;5058798;28;20212;-69
2022/08/22 11:34:57;;;;;;;3.83;1.37;;;21.70;95.50;22.90;96336.00;;;;5058303;28;20227;-70
2022/08/22 11:37:55;;;;;;;1.63;1.53;;;21.60;95.10;22.80;96320.00;;;;5056568;28;20719;-71
2022/08/22 11:40:57;;;;;;;1.30;1.27;;;21.50;95.40;22.80;96332.00;;;;5065844;28;21021;-70
2022/08/22 11:43:55;;;;;;;2.70;1.47;;;21.50;95.20;23.20;96344.00;;;;5063211;28;20200;-69
2022/08/22 11:46:47;;;;;;;1.27;1.17;;;21.50;95.50;23.00;96338.00;;;;5063533;28;20206;-70
2022/08/22 11:49:56;;;;;;;2.17;1.30;;;21.50;95.50;23.10;96342.00;;;;5058643;28;20203;-71
2022/08/22 11:53:13;;;;;;;1.50;1.10;;;21.50;95.40;23.10;96342.00;;;;5056159;28;20680;-69
2022/08/22 11:56:18;;;;;;;1.20;1.10;;;21.50;96.30;23.30;96348.00;;;;5058471;28;20199;-71
2022/08/22 11:59:20;;;;;;;1.73;1.20;;;21.50;96.40;22.50;96347.00;;;;5061207;28;20215;-73
2022/08/22 12:02:18;;;;;;;2.90;1.33;;;21.50;95.70;22.70;96353.00;;;;5067766;28;20224;-69
2022/08/22 12:05:16;;;;;;;1.53;1.20;;;21.40;95.90;23.00;96354.00;;;;5065486;28;20707;-70
2022/08/22 12:08:13;;;;;;;1.80;1.20;;;21.40;96.50;22.90;96352.00;;;;5056930;28;20210;-70
2022/08/22 12:11:11;;;;;;;1.23;0.90;;;21.40;95.50;23.10;96352.00;;;;5070579;28;20220;-69
2022/08/22 12:14:05;;;;;;;1.77;1.10;;;21.40;96.20;23.10;96348.00;;;;5056066;28;20207;-70
2022/08/22 12:17:13;;;;;;;1.90;1.37;;;21.40;96.20;23.10;96354.00;;;;5061853;28;20196;-69
2022/08/22 12:20:19;;;;;;;0.80;0.80;;;21.50;96.20;23.20;96350.00;;;;5065966;28;20211;-69
2022/08/22 12:23:33;;;;;;;1.43;1.00;;;21.50;95.90;22.70;96344.00;;;;5068901;28;20206;-70
2022/08/22 12:26:31;;;;;;;1.60;1.37;;;21.50;95.20;23.10;96354.00;;;;5069160;28;20222;-70
2022/08/22 12:29:33;;;;;;;1.10;1.00;;;21.40;96.30;23.10;96351.00;;;;5053694;28;20201;-70
2022/08/22 12:33:13;;;;;;;2.70;1.23;;;21.50;96.80;23.20;96352.00;;;;5056462;28;20222;-71
2022/08/22 12:36:57;;;;;;;1.17;1.00;;;21.50;96.80;22.80;96358.00;;;;5056281;28;20192;-70
2022/08/22 12:40:23;;;;;;;1.40;1.20;;;21.50;97.00;23.00;96364.00;;;;5046345;28;20700;-69
2022/08/22 12:43:39;;;;;;;1.17;0.87;;;21.40;97.50;23.10;96360.00;;;;5068694;28;20214;-70
2022/08/22 12:46:42;;;;;;;2.20;1.40;;;21.40;97.20;23.10;96363.00;;;;5059088;28;20253;-71
2022/08/22 12:49:47;;;;;;;1.63;1.23;;;21.40;97.00;23.30;96363.00;;;;5064998;28;20199;-70
2022/08/22 12:53:13;;;;;;;1.60;1.50;;;21.50;97.90;23.10;96373.00;;;;5054771;28;20207;-70
2022/08/22 12:56:15;;;;;;;1.93;1.53;;;21.50;97.90;23.10;96373.00;;;;5062830;28;20204;-70
2022/08/22 12:59:25;;;;;;;1.60;1.50;;;21.60;97.10;22.80;96367.00;;;;5061085;28;20721;-71
2022/08/22 13:02:18;;;;;;;3.13;1.47;;;21.50;98.00;22.40;96378.00;;;;5055770;28;20881;-72
2022/08/22 13:05:13;;;;;;;2.07;1.30;;;21.40;97.30;22.70;96370.00;;;;5062854;28;20203;-70
2022/08/22 13:08:06;;;;;;;1.00;0.90;;;21.40;98.10;22.70;96374.00;;;;5056328;28;20257;-71
2022/08/22 13:11:01;;;;;;;1.30;1.20;;;21.30;98.70;23.00;96376.00;;;;5056110;28;20232;-71
2022/08/22 13:13:55;;;;;;;2.40;1.10;;;21.30;98.60;23.00;96385.00;;;;5052218;28;20203;-70
2022/08/22 13:16:50;;;;;;;1.63;1.07;;;21.40;98.10;22.70;96382.00;;;;5067824;28;20337;-70
2022/08/22 13:20:05;;;;;;;1.10;1.00;;;21.30;98.10;23.00;96380.00;;;;5063665;28;20708;-71
2022/08/22 13:22:54;;;;;;;1.30;1.20;;;21.30;97.60;23.10;96379.00;;;;5070336;22;20236;-75
2022/08/22 13:26:04;;;;;;;2.20;1.17;;;21.40;97.60;23.10;96381.00;;;;5048908;28;20196;-75
2022/08/22 13:29:00;;;;;;;1.27;1.00;;;21.40;97.10;22.90;96387.00;;;;5049056;28;20200;-76
2022/08/22 13:32:05;;;;;;;1.27;1.17;;;21.40;97.70;23.00;96378.00;;;;5047179;28;20251;-75
2022/08/22 13:34:57;;;;;;;0.90;0.90;;;21.50;97.60;23.10;96379.00;;;;5045170;28;20215;-75
2022/08/22 13:37:51;;;;;;;1.37;1.20;;;21.50;97.60;23.10;96385.00;;;;5047920;28;20207;-74
2022/08/22 13:40:47;;;;;;;0.90;0.90;;;21.50;97.00;23.30;96379.00;;;;5040266;28;20204;-75
2022/08/22 13:44:10;;;;;;;1.63;1.13;;;21.60;97.60;23.10;96378.00;;;;5048293;28;20201;-75